Time;durP1;ratioP1;P1;durP2;ratioP2;P2;SDS_P1;SDS_P2;PMS_P1;PMS_P2;Temp;Humidity;BMP_temperature;BMP_pressure;BME280_temperature;BME280_humidity;BME280_pressure;Samples;Min_cycle;Max_cycle;Signal;HPM_P1;HPM_P2
2022/10/04 00:00:45;;;;;;;13.65;6.97;;;;;;;4.94;nan;94573.22;4932923;29;20119;-61
2022/10/04 00:03:23;;;;;;;17.77;7.70;;;;;;;4.91;nan;94576.69;4933377;29;20400;-61
2022/10/04 00:05:55;;;;;;;16.65;7.32;;;;;;;4.94;nan;94567.78;4932714;29;20054;-61
2022/10/04 00:08:24;;;;;;;14.05;6.95;;;;;;;4.86;nan;94568.81;4933129;29;20055;-62
2022/10/04 00:11:02;;;;;;;11.95;6.15;;;;;;;4.58;nan;94566.38;4936815;28;20065;-61
2022/10/04 00:13:29;;;;;;;11.27;6.30;;;;;;;4.64;nan;94569.59;4935683;29;20070;-61
2022/10/04 00:15:56;;;;;;;12.10;6.07;;;;;;;4.59;nan;94563.31;4932802;29;20504;-63
2022/10/04 00:18:38;;;;;;;13.60;6.55;;;;;;;4.52;nan;94573.25;4932763;29;20051;-61
2022/10/04 00:21:06;;;;;;;16.02;6.57;;;;;;;4.50;nan;94573.59;4932261;29;20443;-61
2022/10/04 00:23:36;;;;;;;12.50;6.00;;;;;;;4.52;nan;94568.59;4932719;29;20179;-61
2022/10/04 00:26:24;;;;;;;12.60;6.00;;;;;;;4.51;nan;94567.03;4931975;29;20655;-61
2022/10/04 00:28:51;;;;;;;11.13;6.03;;;;;;;4.49;nan;94560.41;4902611;29;20055;-61
2022/10/04 00:31:24;;;;;;;13.55;6.28;;;;;;;4.49;nan;94561.19;4932702;29;20063;-62
2022/10/04 00:34:14;;;;;;;13.07;6.55;;;;;;;4.55;nan;94557.00;4932284;29;20408;-61
2022/10/04 00:36:49;;;;;;;14.52;6.80;;;;;;;4.57;nan;94556.66;4940747;28;20122;-61
2022/10/04 00:39:24;;;;;;;11.50;6.05;;;;;;;4.28;nan;94566.97;4932882;29;20043;-61
2022/10/04 00:42:03;;;;;;;11.60;5.50;;;;;;;4.25;nan;94558.78;4932133;29;20066;-61
2022/10/04 00:44:42;;;;;;;13.40;6.78;;;;;;;4.07;nan;94553.00;4931159;29;20052;-61
2022/10/04 00:47:43;;;;;;;13.48;6.57;;;;;;;4.19;nan;94547.41;4923392;29;22142;-60
2022/10/04 00:50:19;;;;;;;11.30;6.22;;;;;;;4.13;nan;94548.84;4928038;29;20408;-61
2022/10/04 00:52:54;;;;;;;13.50;6.35;;;;;;;4.17;nan;94538.84;4932131;29;20047;-61
2022/10/04 00:55:33;;;;;;;12.73;5.70;;;;;;;3.96;nan;94540.00;4932553;29;20049;-61
2022/10/04 00:58:03;;;;;;;12.57;5.30;;;;;;;3.95;nan;94541.13;4931809;29;20481;-61
2022/10/04 01:00:32;;;;;;;10.18;5.47;;;;;;;3.84;nan;94540.13;4932465;29;20050;-61
2022/10/04 01:03:14;;;;;;;10.25;5.20;;;;;;;3.96;nan;94536.47;4932012;29;20051;-61
2022/10/04 01:05:49;;;;;;;9.80;5.00;;;;;;;3.91;nan;94537.56;4931792;29;20047;-61
2022/10/04 01:08:30;;;;;;;8.90;4.93;;;;;;;3.85;nan;94543.66;4932147;29;20055;-61
2022/10/04 01:11:03;;;;;;;10.23;5.15;;;;;;;3.88;nan;94537.50;4936696;28;20378;-61
2022/10/04 01:13:35;;;;;;;9.80;4.65;;;;;;;3.84;nan;94537.41;4934830;29;20051;-62
2022/10/04 01:16:23;;;;;;;12.15;4.95;;;;;;;3.72;nan;94538.34;4931380;29;20048;-63
2022/10/04 01:18:50;;;;;;;12.65;6.85;;;;;;;3.78;nan;94530.69;4931646;29;20327;-61
2022/10/04 01:21:17;;;;;;;16.43;6.97;;;;;;;3.69;nan;94522.78;4915279;29;20473;-61
2022/10/04 01:23:46;;;;;;;16.55;7.90;;;;;;;3.82;nan;94520.69;4931765;29;20054;-62
2022/10/04 01:26:25;;;;;;;12.85;5.72;;;;;;;3.83;nan;94521.50;4931916;29;20046;-61
2022/10/04 01:28:53;;;;;;;10.65;5.13;;;;;;;3.91;nan;94524.00;4931654;29;20062;-61
2022/10/04 01:31:20;;;;;;;11.95;5.45;;;;;;;3.90;nan;94522.41;4931997;29;20052;-61
2022/10/04 01:33:47;;;;;;;9.37;5.13;;;;;;;3.91;nan;94518.56;4931679;29;20050;-61
2022/10/04 01:36:14;;;;;;;10.63;4.63;;;;;;;3.87;nan;94512.28;4940379;28;20054;-61
2022/10/04 01:38:41;;;;;;;10.60;5.25;;;;;;;3.81;nan;94508.28;4931833;29;20043;-61
2022/10/04 01:41:10;;;;;;;11.52;5.05;;;;;;;3.80;nan;94510.22;4931622;29;20079;-61
2022/10/04 01:43:41;;;;;;;13.30;4.80;;;;;;;3.72;nan;94502.25;4931623;29;20062;-60
2022/10/04 01:46:22;;;;;;;10.10;4.50;;;;;;;3.70;nan;94509.97;4930576;29;20054;-61
2022/10/04 01:48:50;;;;;;;9.40;4.63;;;;;;;3.59;nan;94502.41;4930120;29;20060;-61
2022/10/04 01:51:23;;;;;;;10.18;4.53;;;;;;;3.59;nan;94507.84;4931981;29;20465;-61
2022/10/04 01:53:55;;;;;;;9.15;4.57;;;;;;;3.53;nan;94503.06;4931560;29;20048;-60
2022/10/04 01:56:26;;;;;;;9.88;4.45;;;;;;;3.56;nan;94488.75;4931664;29;20043;-61
2022/10/04 01:58:59;;;;;;;8.93;4.33;;;;;;;3.45;nan;94499.41;4933981;29;20052;-61
2022/10/04 02:01:38;;;;;;;9.55;4.70;;;;;;;3.22;nan;94484.94;4935584;29;20043;-60
2022/10/04 02:04:12;;;;;;;10.55;4.80;;;;;;;3.25;nan;94482.31;4934599;29;20849;-61
2022/10/04 02:06:43;;;;;;;9.93;4.57;;;;;;;3.28;nan;94484.31;4934966;29;20056;-62
2022/10/04 02:09:21;;;;;;;9.75;4.97;;;;;;;3.36;nan;94479.81;4935368;29;20052;-63
2022/10/04 02:11:52;;;;;;;10.00;5.10;;;;;;;3.26;nan;94486.59;4943082;28;20039;-61
2022/10/04 02:14:24;;;;;;;8.57;4.25;;;;;;;2.99;nan;94480.97;4935058;29;20420;-61
2022/10/04 02:16:52;;;;;;;9.82;5.03;;;;;;;3.05;nan;94488.84;4934423;29;20071;-61
2022/10/04 02:19:24;;;;;;;9.98;4.60;;;;;;;2.98;nan;94484.84;4935234;29;20365;-61
2022/10/04 02:21:51;;;;;;;10.27;4.60;;;;;;;3.08;nan;94482.69;4934307;29;20070;-61
2022/10/04 02:24:19;;;;;;;10.50;4.40;;;;;;;3.06;nan;94474.13;4934889;29;20062;-60
2022/10/04 02:26:52;;;;;;;9.13;4.65;;;;;;;3.13;nan;94477.78;4934005;29;20062;-60
2022/10/04 02:29:20;;;;;;;11.30;4.65;;;;;;;3.15;nan;94482.88;4935121;29;20504;-62
2022/10/04 02:34:36;;;;;;;9.00;4.60;;;;;;;3.12;nan;94465.38;4934674;29;20055;-61
2022/10/04 02:37:04;;;;;;;10.97;4.40;;;;;;;3.11;nan;94471.16;4942588;28;20419;-61
2022/10/04 02:39:37;;;;;;;9.10;4.40;;;;;;;2.99;nan;94464.69;4934398;29;20062;-63
2022/10/04 02:42:24;;;;;;;20.73;4.50;;;;;;;2.90;nan;94468.75;4933959;29;20692;-61
2022/10/04 02:44:57;;;;;;;20.20;4.38;;;;;;;2.93;nan;94476.19;4932506;29;20059;-61
2022/10/04 02:47:29;;;;;;;9.45;4.53;;;;;;;2.90;nan;94474.97;4934737;29;20597;-61
2022/10/04 02:50:05;;;;;;;10.50;4.07;;;;;;;2.93;nan;94476.19;4930675;29;20055;-60
2022/10/04 02:52:47;;;;;;;8.65;4.00;;;;;;;2.93;nan;94478.88;4934111;29;20059;-61
2022/10/04 02:55:26;;;;;;;8.65;4.10;;;;;;;3.00;nan;94462.78;4933630;29;20703;-60
2022/10/04 02:57:54;;;;;;;9.02;4.18;;;;;;;2.97;nan;94469.69;4933711;29;20054;-61
2022/10/04 03:00:30;;;;;;;39.13;17.90;;;;;;;2.99;nan;94474.75;4934083;29;20039;-62
2022/10/04 03:03:08;;;;;;;24.50;8.07;;;;;;;3.01;nan;94467.06;4933855;29;20051;-60
2022/10/04 03:05:37;;;;;;;15.90;4.22;;;;;;;2.67;nan;94468.59;4934233;29;20054;-61
2022/10/04 03:08:04;;;;;;;9.02;4.15;;;;;;;2.52;nan;94465.56;4933091;28;20775;-60
2022/10/04 03:10:31;;;;;;;13.65;4.15;;;;;;;2.60;nan;94464.59;4935510;29;20438;-61
2022/10/04 03:12:58;;;;;;;9.20;4.20;;;;;;;2.59;nan;94463.00;4938566;28;20090;-61
2022/10/04 03:15:25;;;;;;;17.00;5.13;;;;;;;2.71;nan;94456.69;4934259;29;20044;-61
2022/10/04 03:17:52;;;;;;;10.88;5.00;;;;;;;2.81;nan;94455.38;4916685;29;20050;-61
2022/10/04 03:20:22;;;;;;;9.07;4.47;;;;;;;2.77;nan;94452.59;4934085;29;20039;-62
2022/10/04 03:22:54;;;;;;;12.93;4.15;;;;;;;2.78;nan;94451.47;4933571;29;20050;-61
2022/10/04 03:25:27;;;;;;;8.07;4.30;;;;;;;2.71;nan;94453.22;4933836;29;20051;-61
2022/10/04 03:28:00;;;;;;;8.07;3.87;;;;;;;2.73;nan;94449.00;4933241;29;20048;-62
2022/10/04 03:30:28;;;;;;;9.27;4.07;;;;;;;2.75;nan;94444.03;4933785;29;20051;-61
2022/10/04 03:32:55;;;;;;;8.52;4.75;;;;;;;2.76;nan;94450.25;4933088;29;20050;-62
2022/10/04 03:35:37;;;;;;;7.00;3.83;;;;;;;2.75;nan;94451.38;4938921;29;20377;-61
2022/10/04 03:38:07;;;;;;;9.05;4.18;;;;;;;2.59;nan;94445.97;4913716;29;20870;-60
2022/10/04 03:40:36;;;;;;;11.37;4.83;;;;;;;2.57;nan;94454.44;4916747;29;20062;-60
2022/10/04 03:43:04;;;;;;;11.63;4.60;;;;;;;2.55;nan;94453.22;4913595;29;20443;-62
2022/10/04 03:45:33;;;;;;;9.90;4.40;;;;;;;2.60;nan;94451.03;4914658;29;20046;-61
2022/10/04 03:48:05;;;;;;;8.13;3.97;;;;;;;2.59;nan;94460.28;4914184;29;20052;-61
2022/10/04 03:50:38;;;;;;;9.77;4.85;;;;;;;2.63;nan;94460.38;4914529;29;20067;-61
2022/10/04 03:53:42;;;;;;;9.60;4.60;;;;;;;2.65;nan;94457.34;4913463;29;21684;-60
2022/10/04 03:56:17;;;;;;;9.23;4.32;;;;;;;2.73;nan;94454.44;4911950;29;21567;-60
2022/10/04 03:58:45;;;;;;;7.65;3.92;;;;;;;2.69;nan;94453.56;4913826;29;20060;-60
2022/10/04 04:01:38;;;;;;;7.68;4.03;;;;;;;2.71;nan;94464.06;4914248;29;20048;-61
2022/10/04 04:04:15;;;;;;;12.60;5.35;;;;;;;2.71;nan;94451.28;4913293;29;20693;-61
2022/10/04 04:06:56;;;;;;;10.13;4.30;;;;;;;2.65;nan;94449.19;4913896;29;20103;-61
2022/10/04 04:09:54;;;;;;;8.80;4.60;;;;;;;2.60;nan;94459.16;4914375;29;20056;-61
2022/10/04 04:12:33;;;;;;;16.33;7.82;;;;;;;2.47;nan;94460.41;4922687;29;20048;-60
2022/10/04 04:15:01;;;;;;;23.27;11.85;;;;;;;2.57;nan;94462.56;4911762;29;20073;-61
2022/10/04 04:17:34;;;;;;;23.58;10.85;;;;;;;2.67;nan;94458.53;4893824;29;20049;-62
2022/10/04 04:20:06;;;;;;;15.03;6.10;;;;;;;2.63;nan;94457.69;4907766;29;20330;-62
2022/10/04 04:22:35;;;;;;;14.85;6.80;;;;;;;2.64;nan;94445.72;4913793;29;20045;-60
2022/10/04 04:25:07;;;;;;;13.93;5.97;;;;;;;2.67;nan;94461.25;4913476;29;20046;-61
2022/10/04 04:27:38;;;;;;;10.32;4.68;;;;;;;2.67;nan;94452.34;4913650;29;20058;-60
2022/10/04 04:30:07;;;;;;;7.80;3.97;;;;;;;2.64;nan;94451.13;4913108;29;20229;-60
2022/10/04 04:32:44;;;;;;;11.17;3.90;;;;;;;2.65;nan;94452.69;4902648;29;20442;-60
2022/10/04 04:35:22;;;;;;;8.43;4.10;;;;;;;2.64;nan;94437.59;4915509;29;20660;-63
2022/10/04 04:38:18;;;;;;;11.25;4.50;;;;;;;2.63;nan;94446.06;4913308;29;20047;-61
2022/10/04 04:40:45;;;;;;;11.02;5.10;;;;;;;2.66;nan;94443.44;4911690;29;20267;-61
2022/10/04 04:43:18;;;;;;;12.50;7.10;;;;;;;2.70;nan;94444.31;4913745;29;20054;-62
2022/10/04 04:45:48;;;;;;;28.37;16.93;;;;;;;2.59;nan;94444.03;4913066;29;20054;-62
2022/10/04 04:48:28;;;;;;;21.33;11.20;;;;;;;2.60;nan;94442.13;4913773;29;20051;-60
2022/10/04 04:50:57;;;;;;;10.52;6.20;;;;;;;2.66;nan;94450.78;4913109;29;20044;-60
2022/10/04 04:53:29;;;;;;;8.98;4.53;;;;;;;2.67;nan;94442.28;4913583;29;20427;-61
2022/10/04 04:56:02;;;;;;;13.45;7.00;;;;;;;2.65;nan;94446.50;4911259;29;20095;-61
2022/10/04 04:58:40;;;;;;;16.63;7.87;;;;;;;2.67;nan;94449.63;4913256;29;20046;-60
2022/10/04 05:01:22;;;;;;;16.38;6.72;;;;;;;2.59;nan;94449.47;4912477;29;20844;-60
2022/10/04 05:04:14;;;;;;;25.15;7.15;;;;;;;2.56;nan;94441.28;4912777;29;20090;-61
2022/10/04 05:06:43;;;;;;;43.90;17.35;;;;;;;2.52;nan;94449.31;4912505;29;20059;-60
2022/10/04 05:09:22;;;;;;;39.83;10.57;;;;;;;2.56;nan;94446.69;4913459;29;20490;-60
2022/10/04 05:11:50;;;;;;;17.80;8.60;;;;;;;2.55;nan;94440.47;4919567;29;20040;-60
2022/10/04 05:14:18;;;;;;;16.27;7.32;;;;;;;2.63;nan;94451.47;4913489;29;20040;-60
2022/10/04 05:16:49;;;;;;;15.68;6.93;;;;;;;2.64;nan;94447.66;4912374;29;20048;-60
2022/10/04 05:19:20;;;;;;;12.88;5.63;;;;;;;2.76;nan;94447.53;4912446;29;20050;-61
2022/10/04 05:21:50;;;;;;;14.02;6.07;;;;;;;2.72;nan;94452.88;4911820;29;20044;-62
2022/10/04 05:24:23;;;;;;;34.40;6.10;;;;;;;2.66;nan;94457.00;4912348;29;20394;-61
2022/10/04 05:26:53;;;;;;;17.05;5.65;;;;;;;2.63;nan;94460.38;4911621;29;20044;-61
2022/10/04 05:29:25;;;;;;;145.63;8.15;;;;;;;2.40;nan;94454.81;4912497;29;20044;-62
2022/10/04 05:32:03;;;;;;;69.75;6.90;;;;;;;2.55;nan;94458.66;4912853;29;20044;-61
2022/10/04 05:34:40;;;;;;;37.72;6.30;;;;;;;2.57;nan;94456.38;4915665;29;20520;-61
2022/10/04 05:37:44;;;;;;;35.93;6.37;;;;;;;2.48;nan;94463.91;4916987;29;20790;-62
2022/10/04 05:40:11;;;;;;;25.50;6.10;;;;;;;2.60;nan;94461.88;4914728;29;20446;-62
2022/10/04 05:42:44;;;;;;;53.97;6.53;;;;;;;2.71;nan;94466.75;4915085;29;20052;-61
2022/10/04 05:45:17;;;;;;;25.83;7.40;;;;;;;2.72;nan;94449.38;4913541;29;20059;-60
2022/10/04 05:47:50;;;;;;;18.17;6.97;;;;;;;2.89;nan;94461.75;4914394;29;20044;-61
2022/10/04 05:50:21;;;;;;;15.63;6.20;;;;;;;2.99;nan;94459.28;4914897;29;20048;-61
2022/10/04 05:52:50;;;;;;;17.67;6.97;;;;;;;3.03;nan;94458.59;4914229;29;20059;-63
2022/10/04 05:55:25;;;;;;;33.22;9.90;;;;;;;2.94;nan;94461.50;4912621;29;20445;-63
2022/10/04 05:57:58;;;;;;;20.38;7.10;;;;;;;3.08;nan;94461.81;4914703;29;20078;-63
2022/10/04 06:00:57;;;;;;;26.25;7.32;;;;;;;3.21;nan;94465.16;4913333;29;20056;-60
2022/10/04 06:03:53;;;;;;;121.90;13.50;;;;;;;2.93;nan;94466.13;4908798;29;20645;-60
2022/10/04 06:06:48;;;;;;;60.88;13.13;;;;;;;2.78;nan;94466.94;4932932;29;20082;-61
2022/10/04 06:09:18;;;;;;;61.25;10.68;;;;;;;2.84;nan;94464.72;4925800;29;20478;-61
2022/10/04 06:12:19;;;;;;;90.22;14.63;;;;;;;2.92;nan;94469.19;4934723;29;20040;-61
2022/10/04 06:14:55;;;;;;;38.30;11.35;;;;;;;3.01;nan;94475.19;4933187;29;20043;-61
2022/10/04 06:17:52;;;;;;;122.30;10.30;;;;;;;3.25;nan;94470.69;4933771;29;20036;-60
2022/10/04 06:20:54;;;;;;;71.45;8.68;;;;;;;3.48;nan;94479.72;4923507;29;20404;-61
2022/10/04 06:23:24;;;;;;;51.28;8.52;;;;;;;3.65;nan;94478.47;4855089;29;20529;-61
2022/10/04 06:26:00;;;;;;;60.25;9.35;;;;;;;3.83;nan;94486.97;4905772;29;20043;-61
2022/10/04 06:28:35;;;;;;;44.38;8.02;;;;;;;3.98;nan;94469.81;4933119;29;20523;-61
2022/10/04 06:31:17;;;;;;;25.80;8.97;;;;;;;3.97;nan;94470.19;4933384;29;20052;-61
2022/10/04 06:33:59;;;;;;;32.20;7.82;;;;;;;4.02;nan;94480.72;4916018;29;20048;-61
2022/10/04 06:36:35;;;;;;;32.97;10.70;;;;;;;4.07;nan;94483.16;4945262;28;20047;-61
2022/10/04 06:39:23;;;;;;;31.25;11.75;;;;;;;4.18;nan;94492.28;4933217;29;20265;-60
2022/10/04 06:42:05;;;;;;;44.55;11.30;;;;;;;4.09;nan;94491.75;4933002;29;20064;-60
2022/10/04 06:44:37;;;;;;;34.43;9.90;;;;;;;3.91;nan;94496.06;4932717;29;20040;-60
2022/10/04 06:47:25;;;;;;;42.80;9.20;;;;;;;4.03;nan;94489.69;4932606;29;21575;-62
2022/10/04 06:50:29;;;;;;;21.98;8.38;;;;;;;4.10;nan;94495.25;4933044;29;20400;-60
2022/10/04 06:53:35;;;;;;;24.77;7.95;;;;;;;4.55;nan;94482.84;4933111;29;20069;-61
2022/10/04 06:56:25;;;;;;;24.00;8.00;;;;;;;4.86;nan;94489.94;4932884;29;20046;-61
2022/10/04 06:59:03;;;;;;;23.27;7.50;;;;;;;4.85;nan;94487.56;4932856;29;20047;-61
2022/10/04 07:01:33;;;;;;;21.02;9.23;;;;;;;5.09;nan;94487.19;4924259;29;20039;-61
2022/10/04 07:04:15;;;;;;;17.73;7.50;;;;;;;5.35;nan;94500.00;4932604;29;20052;-61
2022/10/04 07:10:00;;;;;;;29.75;7.35;;;;;;;6.02;nan;94506.72;4932531;29;20149;-62
2022/10/04 07:12:30;;;;;;;15.33;7.20;;;;;;;6.32;nan;94509.38;4938931;28;20058;-62
2022/10/04 07:15:01;;;;;;;18.80;8.32;;;;;;;7.90;nan;94513.25;4932348;29;20050;-61
2022/10/04 07:17:42;;;;;;;19.58;9.00;;;;;;;9.48;nan;94508.06;4933048;29;20469;-61
2022/10/04 07:20:32;;;;;;;20.10;10.93;;;;;;;10.39;nan;94515.63;4931988;29;21627;-62
2022/10/04 07:23:04;;;;;;;15.27;7.85;;;;;;;12.70;nan;94509.59;4932590;29;20050;-63
2022/10/04 07:25:42;;;;;;;14.10;7.50;;;;;;;13.26;nan;94511.13;4932747;29;20043;-62
2022/10/04 07:31:12;;;;;;;15.80;7.60;;;;;;;14.55;nan;94506.78;4931821;29;20054;-62
2022/10/04 07:33:50;;;;;;;19.92;11.05;;;;;;;13.93;nan;94513.94;4932219;29;20051;-62
2022/10/04 07:36:26;;;;;;;14.75;8.40;;;;;;;13.86;nan;94509.31;4934643;29;20090;-62
2022/10/04 07:39:05;;;;;;;18.00;9.77;;;;;;;13.43;nan;94501.81;4931866;29;20040;-62
2022/10/04 07:41:45;;;;;;;14.85;8.00;;;;;;;14.53;nan;94500.91;4932531;29;20052;-62
2022/10/04 07:44:19;;;;;;;11.63;7.18;;;;;;;14.75;nan;94494.97;4931640;29;20348;-63
2022/10/04 07:46:54;;;;;;;13.40;7.35;;;;;;;13.78;nan;94497.66;4932039;29;20415;-62
2022/10/04 07:49:22;;;;;;;14.73;8.95;;;;;;;12.79;nan;94504.31;4932127;29;20047;-63
2022/10/04 07:52:39;;;;;;;13.23;7.43;;;;;;;11.98;nan;94491.22;4931551;29;20051;-63
2022/10/04 07:55:21;;;;;;;14.30;7.63;;;;;;;11.99;nan;94490.03;4907688;29;21041;-62
2022/10/04 07:57:54;;;;;;;16.65;9.98;;;;;;;12.72;nan;94492.66;4912628;29;20048;-62
2022/10/04 08:00:27;;;;;;;15.95;8.95;;;;;;;12.63;nan;94482.13;4911802;29;20048;-62
2022/10/04 08:03:09;;;;;;;10.18;7.03;;;;;;;11.68;nan;94491.13;4930232;29;20420;-62
2022/10/04 08:05:41;;;;;;;10.00;6.27;;;;;;;11.96;nan;94490.06;4931258;28;20050;-62
2022/10/04 08:08:26;;;;;;;12.27;7.85;;;;;;;12.92;nan;94492.75;4930911;29;20700;-63
2022/10/04 08:11:14;;;;;;;12.57;7.80;;;;;;;14.05;nan;94490.47;4935377;28;20051;-62
2022/10/04 08:14:12;;;;;;;11.23;7.38;;;;;;;13.85;nan;94495.97;4938894;28;20048;-62
2022/10/04 08:17:07;;;;;;;12.40;7.85;;;;;;;12.73;nan;94500.47;4931616;29;20050;-63
2022/10/04 08:19:53;;;;;;;11.23;7.23;;;;;;;14.27;nan;94488.06;4919562;29;20044;-62
2022/10/04 08:22:29;;;;;;;23.55;14.25;;;;;;;15.36;nan;94488.78;4930617;29;21172;-62
2022/10/04 08:25:08;;;;;;;10.75;7.10;;;;;;;17.05;nan;94486.97;4931141;29;20048;-63
2022/10/04 08:31:13;;;;;;;9.40;5.82;;;;;;;17.99;nan;94479.19;4930289;29;20484;-62
2022/10/04 08:34:21;;;;;;;10.57;5.90;;;;;;;16.54;nan;94487.66;4931070;29;20496;-63
2022/10/04 08:37:12;;;;;;;10.82;6.40;;;;;;;15.38;nan;94486.38;4913303;28;20043;-63
2022/10/04 08:40:32;;;;;;;9.27;5.78;;;;;;;15.42;nan;94482.75;4930677;29;20062;-62
2022/10/04 08:43:36;;;;;;;18.83;11.27;;;;;;;14.36;nan;94479.97;4930775;29;20066;-62
2022/10/04 08:46:39;;;;;;;10.32;5.13;;;;;;;14.20;nan;94472.41;4921986;29;20385;-62
2022/10/04 08:49:36;;;;;;;8.17;4.63;;;;;;;14.26;nan;94478.22;4930509;29;20617;-62
2022/10/04 08:52:26;;;;;;;10.13;4.90;;;;;;;13.85;nan;94471.91;4930748;29;20486;-61
2022/10/04 08:55:04;;;;;;;9.48;4.35;;;;;;;13.69;nan;94483.63;4930894;29;20054;-62
2022/10/04 08:58:09;;;;;;;10.55;4.88;;;;;;;13.53;nan;94483.53;4931335;29;20043;-62
2022/10/04 09:01:13;;;;;;;8.80;4.70;;;;;;;13.77;nan;94484.28;4926742;29;20508;-63
2022/10/04 09:04:26;;;;;;;8.67;4.90;;;;;;;13.55;nan;94486.66;4913039;29;20819;-62
2022/10/04 09:07:31;;;;;;;9.82;4.75;;;;;;;14.13;nan;94478.84;4930460;29;20040;-62
2022/10/04 09:10:04;;;;;;;7.65;4.55;;;;;;;14.31;nan;94486.78;4897097;29;20056;-63
2022/10/04 09:12:56;;;;;;;6.63;4.25;;;;;;;14.83;nan;94492.81;4944139;28;20040;-62
2022/10/04 09:15:32;;;;;;;8.10;4.47;;;;;;;16.22;nan;94493.34;4926131;29;20988;-63
2022/10/04 09:18:11;;;;;;;7.20;4.20;;;;;;;16.46;nan;94494.63;4930587;29;20055;-63
2022/10/04 09:20:44;;;;;;;9.60;4.22;;;;;;;16.36;nan;94493.72;4928483;29;20052;-62
2022/10/04 09:23:29;;;;;;;9.30;4.53;;;;;;;15.83;nan;94493.19;4931072;29;20054;-62
2022/10/04 09:26:11;;;;;;;6.68;4.20;;;;;;;15.46;nan;94492.50;4899908;29;20048;-62
2022/10/04 09:29:15;;;;;;;10.45;4.53;;;;;;;14.86;nan;94481.69;4913759;29;20345;-62
2022/10/04 09:31:56;;;;;;;11.03;4.43;;;;;;;15.35;nan;94495.56;4930151;29;20044;-62
2022/10/04 09:34:32;;;;;;;7.63;4.60;;;;;;;15.49;nan;94491.66;4931150;29;20046;-62
2022/10/04 09:37:42;;;;;;;8.63;4.80;;;;;;;15.63;nan;94487.72;4932000;29;20560;-62
2022/10/04 09:40:43;;;;;;;8.10;4.30;;;;;;;17.03;nan;94494.94;4929872;29;20693;-62
2022/10/04 09:43:41;;;;;;;7.75;4.22;;;;;;;17.85;nan;94499.88;4930020;29;20616;-62
2022/10/04 09:46:20;;;;;;;6.37;3.73;;;;;;;18.77;nan;94495.00;4929916;29;20700;-63
2022/10/04 09:49:16;;;;;;;6.80;4.05;;;;;;;19.35;nan;94487.22;4930453;29;20389;-63
2022/10/04 09:52:21;;;;;;;8.00;3.88;;;;;;;21.02;nan;94488.84;4894528;29;20075;-63
2022/10/04 09:55:19;;;;;;;10.45;4.20;;;;;;;22.19;nan;94491.19;4929139;29;20159;-63
2022/10/04 09:57:54;;;;;;;7.88;3.92;;;;;;;22.06;nan;94494.25;4930041;29;20086;-63
2022/10/04 10:00:51;;;;;;;6.50;4.10;;;;;;;21.28;nan;94489.22;4930789;29;20047;-63
2022/10/04 10:03:27;;;;;;;6.43;3.63;;;;;;;23.33;nan;94481.56;4930027;29;21551;-64
2022/10/04 10:06:03;;;;;;;6.43;3.80;;;;;;;23.53;nan;94478.03;4930131;29;20062;-63
2022/10/04 10:08:29;;;;;;;5.40;3.85;;;;;;;23.07;nan;94479.38;4930742;29;20047;-63
2022/10/04 10:14:10;;;;;;;7.20;3.60;;;;;;;22.98;nan;94473.06;4920276;29;20047;-63
2022/10/04 10:16:41;;;;;;;6.80;3.85;;;;;;;22.12;nan;94481.16;4930463;29;20062;-63
2022/10/04 10:19:45;;;;;;;8.35;5.20;;;;;;;23.16;nan;94477.72;4914211;29;20676;-63
2022/10/04 10:22:53;;;;;;;8.00;3.40;;;;;;;24.01;nan;94472.09;4932763;29;20221;-63
2022/10/04 10:25:33;;;;;;;6.50;3.40;;;;;;;23.81;nan;94470.06;4932845;29;20794;-63
2022/10/04 10:28:19;;;;;;;4.83;3.10;;;;;;;22.57;nan;94464.47;4933236;29;20063;-64
2022/10/04 10:31:07;;;;;;;7.10;3.92;;;;;;;21.26;nan;94468.59;4933325;29;20048;-64
2022/10/04 10:33:55;;;;;;;5.80;3.22;;;;;;;22.40;nan;94467.75;4933884;29;20415;-63
2022/10/04 10:36:41;;;;;;;5.82;3.42;;;;;;;21.79;nan;94470.81;4935031;29;20641;-63
2022/10/04 10:39:49;;;;;;;8.23;3.50;;;;;;;21.58;nan;94467.06;4932879;29;20608;-64
2022/10/04 10:42:36;;;;;;;6.30;3.20;;;;;;;24.70;nan;94457.59;4932715;29;20629;-65
2022/10/04 10:45:34;;;;;;;4.85;2.90;;;;;;;24.82;nan;94455.66;4932746;29;21618;-63
2022/10/04 10:48:31;;;;;;;5.82;3.25;;;;;;;25.10;nan;94456.66;4932763;29;20054;-63
2022/10/04 10:51:28;;;;;;;4.90;2.97;;;;;;;25.58;nan;94457.31;4932808;29;20057;-63
2022/10/04 10:54:13;;;;;;;5.30;2.70;;;;;;;25.36;nan;94455.88;4932822;29;20056;-63
2022/10/04 10:56:55;;;;;;;6.20;2.90;;;;;;;26.30;nan;94459.72;4932466;29;20481;-63
2022/10/04 10:59:42;;;;;;;5.00;2.70;;;;;;;26.27;nan;94459.97;4932865;29;20671;-64
2022/10/04 11:02:21;;;;;;;5.50;2.70;;;;;;;25.61;nan;94459.88;4893278;29;20195;-64
2022/10/04 11:05:21;;;;;;;6.55;3.10;;;;;;;25.38;nan;94464.56;4932219;29;20373;-64
2022/10/04 11:08:18;;;;;;;4.85;2.85;;;;;;;25.12;nan;94465.38;4932160;29;20114;-64
2022/10/04 11:11:22;;;;;;;6.63;2.90;;;;;;;25.64;nan;94456.06;4932323;29;20053;-63
2022/10/04 11:13:57;;;;;;;4.18;2.80;;;;;;;25.66;nan;94464.75;4919730;29;20047;-64
2022/10/04 11:16:34;;;;;;;4.22;2.75;;;;;;;26.18;nan;94460.97;4932718;29;20154;-64
2022/10/04 11:19:10;;;;;;;8.40;2.67;;;;;;;26.46;nan;94463.88;4931501;29;20058;-64
2022/10/04 11:22:15;;;;;;;5.57;2.67;;;;;;;24.46;nan;94460.63;4929130;29;20044;-63
2022/10/04 11:24:43;;;;;;;5.97;2.90;;;;;;;23.43;nan;94454.97;4931223;29;21491;-63
2022/10/04 11:27:17;;;;;;;5.15;2.70;;;;;;;22.53;nan;94451.44;4932399;29;20043;-63
2022/10/04 11:30:13;;;;;;;6.20;2.97;;;;;;;22.37;nan;94446.31;4931832;29;20396;-64
2022/10/04 11:33:01;;;;;;;5.05;2.72;;;;;;;21.19;nan;94446.59;4932223;29;20090;-63
2022/10/04 11:36:01;;;;;;;5.88;3.20;;;;;;;18.90;nan;94449.66;4938651;29;20043;-63
2022/10/04 11:39:09;;;;;;;5.43;2.90;;;;;;;18.43;nan;94439.50;4923974;29;20698;-62
2022/10/04 11:41:59;;;;;;;6.53;3.05;;;;;;;18.86;nan;94438.69;4916001;29;20818;-63
2022/10/04 11:44:47;;;;;;;5.75;3.13;;;;;;;17.60;nan;94438.84;4931555;29;20456;-62
2022/10/04 11:47:44;;;;;;;7.65;4.80;;;;;;;17.82;nan;94428.53;4931612;29;20062;-63
2022/10/04 11:50:34;;;;;;;6.60;3.63;;;;;;;17.71;nan;94440.03;4931432;29;20632;-62
2022/10/04 11:53:20;;;;;;;5.03;2.77;;;;;;;18.10;nan;94429.56;4932162;29;20055;-62
2022/10/04 11:56:03;;;;;;;5.57;3.20;;;;;;;18.33;nan;94430.31;4931770;29;20404;-62
2022/10/04 11:58:56;;;;;;;6.13;2.97;;;;;;;17.91;nan;94427.88;4932163;29;20402;-63
2022/10/04 12:01:39;;;;;;;6.40;3.25;;;;;;;17.76;nan;94425.56;4931182;29;20841;-62
2022/10/04 12:04:20;;;;;;;5.75;2.78;;;;;;;17.80;nan;94424.69;4931525;29;21526;-63
2022/10/04 12:07:12;;;;;;;6.30;2.77;;;;;;;17.62;nan;94422.50;4931797;29;20059;-62
2022/10/04 12:10:30;;;;;;;6.05;3.00;;;;;;;18.33;nan;94419.22;4931615;29;20048;-62
2022/10/04 12:13:13;;;;;;;6.13;4.38;;;;;;;17.37;nan;94422.13;4898703;29;20044;-62
2022/10/04 12:15:48;;;;;;;5.20;2.60;;;;;;;17.42;nan;94423.56;4931459;29;20047;-63
2022/10/04 12:18:25;;;;;;;4.80;2.70;;;;;;;17.68;nan;94413.16;4931757;29;20404;-63
2022/10/04 12:21:28;;;;;;;6.37;3.33;;;;;;;17.47;nan;94411.91;4931295;29;20062;-63
2022/10/04 12:24:04;;;;;;;6.45;3.78;;;;;;;17.90;nan;94418.00;4931222;29;20039;-62
2022/10/04 12:26:53;;;;;;;5.32;2.75;;;;;;;18.02;nan;94419.16;4931155;29;20079;-63
2022/10/04 12:30:02;;;;;;;5.70;2.95;;;;;;;18.05;nan;94409.91;4918257;29;20670;-62
2022/10/04 12:32:33;;;;;;;7.00;4.50;;;;;;;17.64;nan;94412.50;4912096;29;20672;-63
2022/10/04 12:35:09;;;;;;;5.60;2.50;;;;;;;17.16;nan;94417.28;4933258;29;20040;-62
2022/10/04 12:37:55;;;;;;;5.15;2.80;;;;;;;17.73;nan;94412.59;4932662;29;20059;-64
2022/10/04 12:40:36;;;;;;;6.50;4.28;;;;;;;17.80;nan;94408.03;4930642;29;20201;-62
2022/10/04 12:43:39;;;;;;;5.72;3.70;;;;;;;18.05;nan;94407.94;4930563;29;20044;-62
2022/10/04 12:46:25;;;;;;;7.65;3.50;;;;;;;18.00;nan;94411.28;4912200;29;20996;-63
2022/10/04 12:49:40;;;;;;;6.53;4.23;;;;;;;18.08;nan;94411.81;4930621;29;20043;-65
2022/10/04 12:52:15;;;;;;;4.80;2.75;;;;;;;18.31;nan;94403.00;4871141;29;22040;-63
2022/10/04 12:54:55;;;;;;;5.65;2.70;;;;;;;18.47;nan;94406.78;4922299;29;20050;-62
2022/10/04 12:57:38;;;;;;;5.72;2.78;;;;;;;17.92;nan;94404.44;4931188;29;20379;-62
2022/10/04 13:00:27;;;;;;;5.57;3.55;;;;;;;17.51;nan;94404.22;4917963;29;20382;-63
2022/10/04 13:03:17;;;;;;;5.30;2.80;;;;;;;17.64;nan;94406.19;4930716;29;20047;-61
2022/10/04 13:05:53;;;;;;;5.50;2.72;;;;;;;17.87;nan;94411.34;4930729;29;20054;-62
2022/10/04 13:08:44;;;;;;;5.65;2.80;;;;;;;17.48;nan;94404.34;4931026;29;20039;-62